Beulah, Kansas
Current Conditions -  °F | °C
As of 2:15 PM on Monday 22 Dec 2014 (Local Time) from KPTS Reporting Station
Moderate Rain Moderate Rain  
Wind Chill: 51°   Ceiling: 600
Heat Index: 51°   Visibility: 2mi
Dew Point: 51°   Wind: 7mph
Humidity: 100%   Direction: 250°WSW
Pressure: 29.47"   Gusts: NA
Location:  37.5057°N, 94.9338°W
Report Text: KPTS 222015Z AUTO 25006KT 2SM RA OVC006 11/11 A2947 RMK AO2 T01050106
Loading
Personal Weather Stations






























Interactive Weather Map New forecast layout! Learn more

10-Day Weather Forecast

Advertisements
Track Severe Weather on mobile